sensor_id;sensor_type;location;lat;lon;timestamp;temperature;humidity
10030;DHT22;5055;52.054;8.524;2023-02-07T00:01:29;-3.10;97.00
10030;DHT22;5055;52.054;8.524;2023-02-07T00:03:59;-3.10;97.00
10030;DHT22;5055;52.054;8.524;2023-02-07T00:06:29;-3.20;97.00
10030;DHT22;5055;52.054;8.524;2023-02-07T00:08:59;-3.20;97.00
10030;DHT22;5055;52.054;8.524;2023-02-07T00:11:28;-3.20;97.00
10030;DHT22;5055;52.054;8.524;2023-02-07T00:13:57;-3.30;97.00
10030;DHT22;5055;52.054;8.524;2023-02-07T00:16:27;-3.30;97.00
10030;DHT22;5055;52.054;8.524;2023-02-07T00:18:55;-3.30;97.00
10030;DHT22;5055;52.054;8.524;2023-02-07T00:21:28;-3.10;97.00
10030;DHT22;5055;52.054;8.524;2023-02-07T00:23:57;-3.10;97.00
10030;DHT22;5055;52.054;8.524;2023-02-07T00:26:26;-3.10;97.00
10030;DHT22;5055;52.054;8.524;2023-02-07T00:28:55;-3.10;97.00
10030;DHT22;5055;52.054;8.524;2023-02-07T00:31:26;-3.20;97.00
10030;DHT22;5055;52.054;8.524;2023-02-07T00:33:57;-3.30;97.00
10030;DHT22;5055;52.054;8.524;2023-02-07T00:36:29;-3.40;97.00
10030;DHT22;5055;52.054;8.524;2023-02-07T00:38:59;-3.40;97.00
10030;DHT22;5055;52.054;8.524;2023-02-07T00:41:28;-3.50;97.00
10030;DHT22;5055;52.054;8.524;2023-02-07T00:43:56;-3.50;97.00
10030;DHT22;5055;52.054;8.524;2023-02-07T00:46:24;-3.50;97.00
10030;DHT22;5055;52.054;8.524;2023-02-07T00:48:53;-3.60;97.00
10030;DHT22;5055;52.054;8.524;2023-02-07T00:51:22;-3.60;97.00
10030;DHT22;5055;52.054;8.524;2023-02-07T00:53:53;-3.60;97.00
10030;DHT22;5055;52.054;8.524;2023-02-07T00:56:22;-3.60;97.00
10030;DHT22;5055;52.054;8.524;2023-02-07T00:58:50;-3.60;97.00
10030;DHT22;5055;52.054;8.524;2023-02-07T01:01:18;-3.70;97.00
10030;DHT22;5055;52.054;8.524;2023-02-07T01:03:47;-3.70;97.00
10030;DHT22;5055;52.054;8.524;2023-02-07T01:06:15;-3.70;97.00
10030;DHT22;5055;52.054;8.524;2023-02-07T01:08:44;-3.70;97.00
10030;DHT22;5055;52.054;8.524;2023-02-07T01:11:14;-3.70;97.00
10030;DHT22;5055;52.054;8.524;2023-02-07T01:13:44;-3.70;97.00
10030;DHT22;5055;52.054;8.524;2023-02-07T01:16:17;-3.70;97.00
10030;DHT22;5055;52.054;8.524;2023-02-07T01:18:45;-3.80;97.00
10030;DHT22;5055;52.054;8.524;2023-02-07T01:21:15;-3.80;97.00
10030;DHT22;5055;52.054;8.524;2023-02-07T01:23:43;-3.80;97.00
10030;DHT22;5055;52.054;8.524;2023-02-07T01:26:13;-3.80;97.00
10030;DHT22;5055;52.054;8.524;2023-02-07T01:28:41;-3.80;97.00
10030;DHT22;5055;52.054;8.524;2023-02-07T01:31:11;-3.70;97.00
10030;DHT22;5055;52.054;8.524;2023-02-07T01:33:40;-3.70;97.00
10030;DHT22;5055;52.054;8.524;2023-02-07T01:36:09;-3.80;97.00
10030;DHT22;5055;52.054;8.524;2023-02-07T01:38:38;-3.80;97.00
10030;DHT22;5055;52.054;8.524;2023-02-07T01:41:07;-3.80;97.00
10030;DHT22;5055;52.054;8.524;2023-02-07T01:43:55;-3.80;97.00
10030;DHT22;5055;52.054;8.524;2023-02-07T01:46:24;-3.90;97.00
10030;DHT22;5055;52.054;8.524;2023-02-07T01:48:54;-3.90;97.00
10030;DHT22;5055;52.054;8.524;2023-02-07T01:51:23;-3.80;97.00
10030;DHT22;5055;52.054;8.524;2023-02-07T01:53:55;-3.70;97.00
10030;DHT22;5055;52.054;8.524;2023-02-07T01:56:25;-3.70;97.00
10030;DHT22;5055;52.054;8.524;2023-02-07T01:58:59;-3.70;97.00
10030;DHT22;5055;52.054;8.524;2023-02-07T02:01:28;-3.70;97.00
10030;DHT22;5055;52.054;8.524;2023-02-07T02:03:56;-3.80;97.00
10030;DHT22;5055;52.054;8.524;2023-02-07T02:06:27;-3.80;97.00
10030;DHT22;5055;52.054;8.524;2023-02-07T02:08:57;-3.90;97.00
10030;DHT22;5055;52.054;8.524;2023-02-07T02:11:51;-4.00;97.00
10030;DHT22;5055;52.054;8.524;2023-02-07T02:14:46;-4.00;97.00
10030;DHT22;5055;52.054;8.524;2023-02-07T02:17:30;-4.10;97.00
10030;DHT22;5055;52.054;8.524;2023-02-07T02:23:17;-4.10;97.00
10030;DHT22;5055;52.054;8.524;2023-02-07T02:32:36;-4.10;97.00
10030;DHT22;5055;52.054;8.524;2023-02-07T02:35:10;-4.10;97.00
10030;DHT22;5055;52.054;8.524;2023-02-07T02:37:46;-4.20;97.00
10030;DHT22;5055;52.054;8.524;2023-02-07T02:40:21;-4.20;97.00
10030;DHT22;5055;52.054;8.524;2023-02-07T02:42:57;-4.20;97.00
10030;DHT22;5055;52.054;8.524;2023-02-07T02:45:30;-4.30;97.00
10030;DHT22;5055;52.054;8.524;2023-02-07T02:48:00;-4.30;97.00
10030;DHT22;5055;52.054;8.524;2023-02-07T02:50:30;-4.30;97.00
10030;DHT22;5055;52.054;8.524;2023-02-07T02:52:59;-4.40;97.00
10030;DHT22;5055;52.054;8.524;2023-02-07T02:55:46;-4.40;97.00
10030;DHT22;5055;52.054;8.524;2023-02-07T02:58:21;-4.50;97.00
10030;DHT22;5055;52.054;8.524;2023-02-07T03:01:01;-4.50;97.00
10030;DHT22;5055;52.054;8.524;2023-02-07T03:04:10;-4.40;97.00
10030;DHT22;5055;52.054;8.524;2023-02-07T03:06:52;-4.40;97.00
10030;DHT22;5055;52.054;8.524;2023-02-07T03:09:31;-4.50;97.00
10030;DHT22;5055;52.054;8.524;2023-02-07T03:12:07;-4.50;97.00
10030;DHT22;5055;52.054;8.524;2023-02-07T03:14:45;-4.60;97.00
10030;DHT22;5055;52.054;8.524;2023-02-07T03:17:21;-4.60;97.00
10030;DHT22;5055;52.054;8.524;2023-02-07T03:19:55;-4.60;97.00
10030;DHT22;5055;52.054;8.524;2023-02-07T03:22:27;-4.70;97.00
10030;DHT22;5055;52.054;8.524;2023-02-07T03:24:58;-4.70;97.00
10030;DHT22;5055;52.054;8.524;2023-02-07T03:27:29;-4.70;97.00
10030;DHT22;5055;52.054;8.524;2023-02-07T03:30:00;-4.80;97.00
10030;DHT22;5055;52.054;8.524;2023-02-07T03:32:31;-4.80;97.00
10030;DHT22;5055;52.054;8.524;2023-02-07T03:35:05;-4.80;97.00
10030;DHT22;5055;52.054;8.524;2023-02-07T03:37:38;-4.80;97.00
10030;DHT22;5055;52.054;8.524;2023-02-07T03:40:09;-4.80;97.00
10030;DHT22;5055;52.054;8.524;2023-02-07T03:42:41;-4.70;97.00
10030;DHT22;5055;52.054;8.524;2023-02-07T03:45:13;-4.70;97.00
10030;DHT22;5055;52.054;8.524;2023-02-07T03:47:42;-4.80;97.00
10030;DHT22;5055;52.054;8.524;2023-02-07T03:50:12;-4.80;97.00
10030;DHT22;5055;52.054;8.524;2023-02-07T03:52:40;-4.70;97.00
10030;DHT22;5055;52.054;8.524;2023-02-07T03:55:09;-4.70;97.00
10030;DHT22;5055;52.054;8.524;2023-02-07T03:57:37;-4.70;97.00
10030;DHT22;5055;52.054;8.524;2023-02-07T04:00:07;-4.80;97.00
10030;DHT22;5055;52.054;8.524;2023-02-07T04:02:35;-4.80;97.00
10030;DHT22;5055;52.054;8.524;2023-02-07T04:05:03;-4.90;97.00
10030;DHT22;5055;52.054;8.524;2023-02-07T04:07:33;-4.90;97.00
10030;DHT22;5055;52.054;8.524;2023-02-07T04:10:03;-5.00;97.00
10030;DHT22;5055;52.054;8.524;2023-02-07T04:12:31;-5.00;97.00
10030;DHT22;5055;52.054;8.524;2023-02-07T04:14:59;-4.90;97.00
10030;DHT22;5055;52.054;8.524;2023-02-07T04:17:27;-5.00;97.00
10030;DHT22;5055;52.054;8.524;2023-02-07T04:19:57;-5.00;97.00
10030;DHT22;5055;52.054;8.524;2023-02-07T04:22:27;-5.00;97.00
10030;DHT22;5055;52.054;8.524;2023-02-07T04:24:57;-5.10;97.00
10030;DHT22;5055;52.054;8.524;2023-02-07T04:27:25;-5.10;97.00
10030;DHT22;5055;52.054;8.524;2023-02-07T04:29:53;-5.20;97.00
10030;DHT22;5055;52.054;8.524;2023-02-07T04:32:22;-5.20;97.00
10030;DHT22;5055;52.054;8.524;2023-02-07T04:34:50;-5.20;97.00
10030;DHT22;5055;52.054;8.524;2023-02-07T04:37:18;-5.30;97.00
10030;DHT22;5055;52.054;8.524;2023-02-07T04:39:46;-5.30;97.00
10030;DHT22;5055;52.054;8.524;2023-02-07T04:42:15;-5.30;97.00
10030;DHT22;5055;52.054;8.524;2023-02-07T04:44:44;-5.30;97.00
10030;DHT22;5055;52.054;8.524;2023-02-07T04:47:12;-5.20;97.00
10030;DHT22;5055;52.054;8.524;2023-02-07T04:49:40;-5.20;97.00
10030;DHT22;5055;52.054;8.524;2023-02-07T04:52:08;-5.20;97.00
10030;DHT22;5055;52.054;8.524;2023-02-07T04:54:36;-5.20;97.00
10030;DHT22;5055;52.054;8.524;2023-02-07T04:57:04;-5.20;97.00
10030;DHT22;5055;52.054;8.524;2023-02-07T04:59:34;-5.20;97.00
10030;DHT22;5055;52.054;8.524;2023-02-07T05:02:02;-5.20;97.00
10030;DHT22;5055;52.054;8.524;2023-02-07T05:04:30;-5.30;97.00
10030;DHT22;5055;52.054;8.524;2023-02-07T05:06:58;-5.30;97.00
10030;DHT22;5055;52.054;8.524;2023-02-07T05:09:26;-5.30;97.00
10030;DHT22;5055;52.054;8.524;2023-02-07T05:11:54;-5.30;97.00
10030;DHT22;5055;52.054;8.524;2023-02-07T05:14:23;-5.30;97.00
10030;DHT22;5055;52.054;8.524;2023-02-07T05:16:52;-5.40;97.00
10030;DHT22;5055;52.054;8.524;2023-02-07T05:19:20;-5.40;97.00
10030;DHT22;5055;52.054;8.524;2023-02-07T05:21:49;-5.30;97.00
10030;DHT22;5055;52.054;8.524;2023-02-07T05:24:17;-5.30;97.00
10030;DHT22;5055;52.054;8.524;2023-02-07T05:26:45;-5.30;97.00
10030;DHT22;5055;52.054;8.524;2023-02-07T05:29:13;-5.30;97.00
10030;DHT22;5055;52.054;8.524;2023-02-07T05:31:41;-5.40;97.00
10030;DHT22;5055;52.054;8.524;2023-02-07T05:34:34;-5.40;97.00
10030;DHT22;5055;52.054;8.524;2023-02-07T05:37:02;-5.50;97.00
10030;DHT22;5055;52.054;8.524;2023-02-07T05:39:30;-5.50;97.00
10030;DHT22;5055;52.054;8.524;2023-02-07T05:41:58;-5.50;97.00
10030;DHT22;5055;52.054;8.524;2023-02-07T05:44:27;-5.50;97.00
10030;DHT22;5055;52.054;8.524;2023-02-07T05:46:55;-5.60;97.00
10030;DHT22;5055;52.054;8.524;2023-02-07T05:49:23;-5.60;97.00
10030;DHT22;5055;52.054;8.524;2023-02-07T05:51:52;-5.70;97.00
10030;DHT22;5055;52.054;8.524;2023-02-07T05:54:21;-5.70;97.00
10030;DHT22;5055;52.054;8.524;2023-02-07T05:56:49;-5.70;97.00
10030;DHT22;5055;52.054;8.524;2023-02-07T05:59:17;-5.70;97.00
10030;DHT22;5055;52.054;8.524;2023-02-07T06:01:45;-5.70;97.00
10030;DHT22;5055;52.054;8.524;2023-02-07T06:04:13;-5.60;97.00
10030;DHT22;5055;52.054;8.524;2023-02-07T06:06:42;-5.60;97.00
10030;DHT22;5055;52.054;8.524;2023-02-07T06:09:11;-5.50;97.00
10030;DHT22;5055;52.054;8.524;2023-02-07T06:11:40;-5.30;97.00
10030;DHT22;5055;52.054;8.524;2023-02-07T06:14:08;-5.30;97.00
10030;DHT22;5055;52.054;8.524;2023-02-07T06:16:36;-5.30;97.00
10030;DHT22;5055;52.054;8.524;2023-02-07T06:19:04;-5.30;97.00
10030;DHT22;5055;52.054;8.524;2023-02-07T06:21:32;-5.30;97.00
10030;DHT22;5055;52.054;8.524;2023-02-07T06:24:14;-5.30;97.00
10030;DHT22;5055;52.054;8.524;2023-02-07T06:26:42;-5.30;97.00
10030;DHT22;5055;52.054;8.524;2023-02-07T06:29:13;-5.30;97.00
10030;DHT22;5055;52.054;8.524;2023-02-07T06:31:41;-5.30;97.00
10030;DHT22;5055;52.054;8.524;2023-02-07T06:34:09;-5.30;97.00
10030;DHT22;5055;52.054;8.524;2023-02-07T06:36:37;-5.30;97.00
10030;DHT22;5055;52.054;8.524;2023-02-07T06:39:06;-5.30;97.00
10030;DHT22;5055;52.054;8.524;2023-02-07T06:41:35;-5.40;97.00
10030;DHT22;5055;52.054;8.524;2023-02-07T06:44:03;-5.40;97.00
10030;DHT22;5055;52.054;8.524;2023-02-07T06:46:32;-5.50;97.00
10030;DHT22;5055;52.054;8.524;2023-02-07T06:49:00;-5.50;97.00
10030;DHT22;5055;52.054;8.524;2023-02-07T06:51:28;-5.60;97.00
10030;DHT22;5055;52.054;8.524;2023-02-07T06:53:57;-5.60;97.00
10030;DHT22;5055;52.054;8.524;2023-02-07T06:56:25;-5.60;97.00
10030;DHT22;5055;52.054;8.524;2023-02-07T06:58:54;-5.60;97.00
10030;DHT22;5055;52.054;8.524;2023-02-07T07:01:23;-5.60;97.00
10030;DHT22;5055;52.054;8.524;2023-02-07T07:03:51;-5.60;97.00
10030;DHT22;5055;52.054;8.524;2023-02-07T07:06:19;-5.70;97.00
10030;DHT22;5055;52.054;8.524;2023-02-07T07:08:47;-5.60;97.00
10030;DHT22;5055;52.054;8.524;2023-02-07T07:11:17;-5.60;97.00
10030;DHT22;5055;52.054;8.524;2023-02-07T07:13:45;-5.60;97.00
10030;DHT22;5055;52.054;8.524;2023-02-07T07:16:15;-5.60;97.00
10030;DHT22;5055;52.054;8.524;2023-02-07T07:18:43;-5.60;97.00
10030;DHT22;5055;52.054;8.524;2023-02-07T07:21:11;-5.60;97.00
10030;DHT22;5055;52.054;8.524;2023-02-07T07:23:39;-5.60;97.00
10030;DHT22;5055;52.054;8.524;2023-02-07T07:26:07;-5.60;97.00
10030;DHT22;5055;52.054;8.524;2023-02-07T07:28:35;-5.60;97.00
10030;DHT22;5055;52.054;8.524;2023-02-07T07:31:05;-5.50;97.00
10030;DHT22;5055;52.054;8.524;2023-02-07T07:33:35;-5.40;97.00
10030;DHT22;5055;52.054;8.524;2023-02-07T07:36:04;-5.40;97.00
10030;DHT22;5055;52.054;8.524;2023-02-07T07:38:35;-5.30;97.00
10030;DHT22;5055;52.054;8.524;2023-02-07T07:41:08;-5.00;97.00
10030;DHT22;5055;52.054;8.524;2023-02-07T07:43:36;-4.60;97.00
10030;DHT22;5055;52.054;8.524;2023-02-07T07:46:04;-4.10;97.00
10030;DHT22;5055;52.054;8.524;2023-02-07T07:48:35;-3.70;97.00
10030;DHT22;5055;52.054;8.524;2023-02-07T07:51:03;-3.30;97.00
10030;DHT22;5055;52.054;8.524;2023-02-07T07:53:32;-2.90;97.00
10030;DHT22;5055;52.054;8.524;2023-02-07T07:56:00;-2.70;97.00
10030;DHT22;5055;52.054;8.524;2023-02-07T07:58:28;-2.30;97.00
10030;DHT22;5055;52.054;8.524;2023-02-07T08:00:56;-2.10;97.00
10030;DHT22;5055;52.054;8.524;2023-02-07T08:03:24;-1.80;97.00
10030;DHT22;5055;52.054;8.524;2023-02-07T08:05:54;-1.60;97.00
10030;DHT22;5055;52.054;8.524;2023-02-07T08:08:22;-1.40;97.00
10030;DHT22;5055;52.054;8.524;2023-02-07T08:10:50;-1.10;97.00
10030;DHT22;5055;52.054;8.524;2023-02-07T08:13:18;-0.80;97.00
10030;DHT22;5055;52.054;8.524;2023-02-07T08:15:47;-0.60;97.00
10030;DHT22;5055;52.054;8.524;2023-02-07T08:18:15;-0.40;97.00
10030;DHT22;5055;52.054;8.524;2023-02-07T08:20:43;-0.20;97.00
10030;DHT22;5055;52.054;8.524;2023-02-07T08:23:12;0.00;97.00
10030;DHT22;5055;52.054;8.524;2023-02-07T08:25:41;0.20;97.00
10030;DHT22;5055;52.054;8.524;2023-02-07T08:28:09;0.50;97.00
10030;DHT22;5055;52.054;8.524;2023-02-07T08:30:37;0.70;97.00
10030;DHT22;5055;52.054;8.524;2023-02-07T08:33:06;0.90;97.00
10030;DHT22;5055;52.054;8.524;2023-02-07T08:35:35;1.10;97.00
10030;DHT22;5055;52.054;8.524;2023-02-07T08:38:03;1.40;97.00
10030;DHT22;5055;52.054;8.524;2023-02-07T08:40:33;1.40;97.00
10030;DHT22;5055;52.054;8.524;2023-02-07T08:43:02;1.70;97.00
10030;DHT22;5055;52.054;8.524;2023-02-07T08:45:32;1.90;97.00
10030;DHT22;5055;52.054;8.524;2023-02-07T08:48:01;2.00;97.00
10030;DHT22;5055;52.054;8.524;2023-02-07T08:50:29;2.20;97.00
10030;DHT22;5055;52.054;8.524;2023-02-07T08:52:57;2.50;97.00
10030;DHT22;5055;52.054;8.524;2023-02-07T08:55:25;2.60;97.00
10030;DHT22;5055;52.054;8.524;2023-02-07T08:57:55;2.70;97.00
10030;DHT22;5055;52.054;8.524;2023-02-07T09:00:23;2.90;97.00
10030;DHT22;5055;52.054;8.524;2023-02-07T09:02:51;2.90;97.00
10030;DHT22;5055;52.054;8.524;2023-02-07T09:05:19;2.80;97.00
10030;DHT22;5055;52.054;8.524;2023-02-07T09:07:47;2.70;97.00
10030;DHT22;5055;52.054;8.524;2023-02-07T09:10:16;2.60;97.00
10030;DHT22;5055;52.054;8.524;2023-02-07T09:12:44;2.70;97.00
10030;DHT22;5055;52.054;8.524;2023-02-07T09:15:13;2.60;97.00
10030;DHT22;5055;52.054;8.524;2023-02-07T09:17:41;2.70;97.00
10030;DHT22;5055;52.054;8.524;2023-02-07T09:20:11;2.80;97.00
10030;DHT22;5055;52.054;8.524;2023-02-07T09:22:39;2.80;97.00
10030;DHT22;5055;52.054;8.524;2023-02-07T09:25:21;3.00;97.00
10030;DHT22;5055;52.054;8.524;2023-02-07T09:27:49;3.40;97.00
10030;DHT22;5055;52.054;8.524;2023-02-07T09:30:19;3.60;97.00
10030;DHT22;5055;52.054;8.524;2023-02-07T09:32:48;3.90;97.00
10030;DHT22;5055;52.054;8.524;2023-02-07T09:35:16;4.20;97.00
10030;DHT22;5055;52.054;8.524;2023-02-07T09:37:44;4.50;97.00
10030;DHT22;5055;52.054;8.524;2023-02-07T09:40:17;5.10;97.00
10030;DHT22;5055;52.054;8.524;2023-02-07T09:42:50;5.00;97.00
10030;DHT22;5055;52.054;8.524;2023-02-07T09:45:26;5.40;97.00
10030;DHT22;5055;52.054;8.524;2023-02-07T09:48:00;5.60;97.00
10030;DHT22;5055;52.054;8.524;2023-02-07T09:50:33;5.50;97.00
10030;DHT22;5055;52.054;8.524;2023-02-07T09:53:07;5.60;97.00
10030;DHT22;5055;52.054;8.524;2023-02-07T09:55:45;5.60;97.00
10030;DHT22;5055;52.054;8.524;2023-02-07T09:58:22;6.00;97.00
10030;DHT22;5055;52.054;8.524;2023-02-07T10:00:59;6.00;97.00
10030;DHT22;5055;52.054;8.524;2023-02-07T10:03:28;6.50;97.00
10030;DHT22;5055;52.054;8.524;2023-02-07T10:05:59;6.80;97.00
10030;DHT22;5055;52.054;8.524;2023-02-07T10:08:43;6.90;97.00
10030;DHT22;5055;52.054;8.524;2023-02-07T10:11:15;7.30;97.00
10030;DHT22;5055;52.054;8.524;2023-02-07T10:13:59;7.10;97.00
10030;DHT22;5055;52.054;8.524;2023-02-07T10:16:46;7.00;97.00
10030;DHT22;5055;52.054;8.524;2023-02-07T10:19:29;7.20;97.00
10030;DHT22;5055;52.054;8.524;2023-02-07T10:22:08;7.10;97.00
10030;DHT22;5055;52.054;8.524;2023-02-07T10:27:41;7.10;97.00
10030;DHT22;5055;52.054;8.524;2023-02-07T10:30:15;7.00;97.00
10030;DHT22;5055;52.054;8.524;2023-02-07T10:32:47;6.90;97.00
10030;DHT22;5055;52.054;8.524;2023-02-07T10:35:18;7.10;97.00
10030;DHT22;5055;52.054;8.524;2023-02-07T10:37:49;7.10;97.00
10030;DHT22;5055;52.054;8.524;2023-02-07T10:40:23;7.10;97.00
10030;DHT22;5055;52.054;8.524;2023-02-07T10:42:57;7.10;97.00
10030;DHT22;5055;52.054;8.524;2023-02-07T10:45:27;7.10;97.00
10030;DHT22;5055;52.054;8.524;2023-02-07T10:47:56;7.00;97.00
10030;DHT22;5055;52.054;8.524;2023-02-07T10:50:25;7.00;97.00
10030;DHT22;5055;52.054;8.524;2023-02-07T10:53:07;6.90;97.00
10030;DHT22;5055;52.054;8.524;2023-02-07T10:55:41;6.90;97.00
10030;DHT22;5055;52.054;8.524;2023-02-07T10:58:16;6.70;97.00
10030;DHT22;5055;52.054;8.524;2023-02-07T11:00:50;6.70;97.00
10030;DHT22;5055;52.054;8.524;2023-02-07T11:03:21;7.00;97.00
10030;DHT22;5055;52.054;8.524;2023-02-07T11:05:53;7.30;97.00
10030;DHT22;5055;52.054;8.524;2023-02-07T11:08:24;7.40;97.00
10030;DHT22;5055;52.054;8.524;2023-02-07T11:10:54;7.80;97.00
10030;DHT22;5055;52.054;8.524;2023-02-07T11:13:24;7.50;97.00
10030;DHT22;5055;52.054;8.524;2023-02-07T11:15:57;7.10;97.00
10030;DHT22;5055;52.054;8.524;2023-02-07T11:18:31;6.50;97.00
10030;DHT22;5055;52.054;8.524;2023-02-07T11:21:05;6.30;97.00
10030;DHT22;5055;52.054;8.524;2023-02-07T11:23:34;6.10;97.00
10030;DHT22;5055;52.054;8.524;2023-02-07T11:26:02;6.20;97.00
10030;DHT22;5055;52.054;8.524;2023-02-07T11:28:33;6.10;97.00
10030;DHT22;5055;52.054;8.524;2023-02-07T11:31:05;5.90;97.00
10030;DHT22;5055;52.054;8.524;2023-02-07T11:33:36;5.60;97.00
10030;DHT22;5055;52.054;8.524;2023-02-07T11:36:10;5.60;97.00
10030;DHT22;5055;52.054;8.524;2023-02-07T11:38:40;5.40;97.00
10030;DHT22;5055;52.054;8.524;2023-02-07T11:41:16;5.20;97.00
10030;DHT22;5055;52.054;8.524;2023-02-07T11:43:54;5.20;97.00
10030;DHT22;5055;52.054;8.524;2023-02-07T11:46:29;5.10;97.00
10030;DHT22;5055;52.054;8.524;2023-02-07T11:49:02;5.00;97.00
10030;DHT22;5055;52.054;8.524;2023-02-07T11:51:31;5.00;97.00
10030;DHT22;5055;52.054;8.524;2023-02-07T11:54:01;4.90;97.00
10030;DHT22;5055;52.054;8.524;2023-02-07T11:56:35;4.90;97.00
10030;DHT22;5055;52.054;8.524;2023-02-07T11:59:06;4.90;97.00
10030;DHT22;5055;52.054;8.524;2023-02-07T12:01:35;4.90;97.00
10030;DHT22;5055;52.054;8.524;2023-02-07T12:04:10;4.90;97.00
10030;DHT22;5055;52.054;8.524;2023-02-07T12:06:42;4.90;97.00
10030;DHT22;5055;52.054;8.524;2023-02-07T12:09:29;4.90;97.00
10030;DHT22;5055;52.054;8.524;2023-02-07T12:11:59;4.90;97.00
10030;DHT22;5055;52.054;8.524;2023-02-07T12:14:32;4.90;97.00
10030;DHT22;5055;52.054;8.524;2023-02-07T12:17:05;4.90;97.00
10030;DHT22;5055;52.054;8.524;2023-02-07T12:19:52;4.90;97.00
10030;DHT22;5055;52.054;8.524;2023-02-07T12:22:22;4.90;97.00
10030;DHT22;5055;52.054;8.524;2023-02-07T12:24:55;4.90;97.00
10030;DHT22;5055;52.054;8.524;2023-02-07T12:27:29;4.90;97.00
10030;DHT22;5055;52.054;8.524;2023-02-07T12:30:02;4.90;97.00
10030;DHT22;5055;52.054;8.524;2023-02-07T12:32:38;5.00;97.00
10030;DHT22;5055;52.054;8.524;2023-02-07T12:35:16;5.00;97.00
10030;DHT22;5055;52.054;8.524;2023-02-07T12:37:51;5.00;97.00
10030;DHT22;5055;52.054;8.524;2023-02-07T12:40:30;5.10;97.00
10030;DHT22;5055;52.054;8.524;2023-02-07T12:43:04;5.10;97.00
10030;DHT22;5055;52.054;8.524;2023-02-07T12:45:43;5.20;97.00
10030;DHT22;5055;52.054;8.524;2023-02-07T12:48:24;5.30;97.00
10030;DHT22;5055;52.054;8.524;2023-02-07T12:51:11;5.80;97.00
10030;DHT22;5055;52.054;8.524;2023-02-07T12:53:54;6.70;97.00
10030;DHT22;5055;52.054;8.524;2023-02-07T12:56:38;7.70;97.00
10030;DHT22;5055;52.054;8.524;2023-02-07T12:59:13;8.70;97.00
10030;DHT22;5055;52.054;8.524;2023-02-07T13:01:51;9.70;97.00
10030;DHT22;5055;52.054;8.524;2023-02-07T13:04:41;10.30;97.00
10030;DHT22;5055;52.054;8.524;2023-02-07T13:07:38;11.20;97.00
10030;DHT22;5055;52.054;8.524;2023-02-07T13:10:18;11.80;97.00
10030;DHT22;5055;52.054;8.524;2023-02-07T13:12:52;12.40;97.00
10030;DHT22;5055;52.054;8.524;2023-02-07T13:15:33;12.70;97.00
10030;DHT22;5055;52.054;8.524;2023-02-07T13:18:09;13.20;97.00
10030;DHT22;5055;52.054;8.524;2023-02-07T13:20:53;13.80;97.00
10030;DHT22;5055;52.054;8.524;2023-02-07T13:23:27;14.40;97.00
10030;DHT22;5055;52.054;8.524;2023-02-07T13:25:58;14.30;97.00
10030;DHT22;5055;52.054;8.524;2023-02-07T13:28:34;13.90;97.00
10030;DHT22;5055;52.054;8.524;2023-02-07T13:31:04;13.80;97.00
10030;DHT22;5055;52.054;8.524;2023-02-07T13:33:35;13.60;97.00
10030;DHT22;5055;52.054;8.524;2023-02-07T13:36:10;13.80;97.00
10030;DHT22;5055;52.054;8.524;2023-02-07T13:38:51;13.70;97.00
10030;DHT22;5055;52.054;8.524;2023-02-07T13:41:30;13.50;97.00
10030;DHT22;5055;52.054;8.524;2023-02-07T13:44:04;13.90;97.00
10030;DHT22;5055;52.054;8.524;2023-02-07T13:46:52;13.70;97.00
10030;DHT22;5055;52.054;8.524;2023-02-07T13:49:35;13.40;97.00
10030;DHT22;5055;52.054;8.524;2023-02-07T13:52:10;13.30;97.00
10030;DHT22;5055;52.054;8.524;2023-02-07T13:54:51;14.00;97.00
10030;DHT22;5055;52.054;8.524;2023-02-07T13:57:37;14.70;97.00
10030;DHT22;5055;52.054;8.524;2023-02-07T14:00:25;14.60;97.00
10030;DHT22;5055;52.054;8.524;2023-02-07T14:02:56;13.90;97.00
10030;DHT22;5055;52.054;8.524;2023-02-07T14:05:29;14.30;97.00
10030;DHT22;5055;52.054;8.524;2023-02-07T14:08:00;13.70;97.00
10030;DHT22;5055;52.054;8.524;2023-02-07T14:10:38;13.20;97.00
10030;DHT22;5055;52.054;8.524;2023-02-07T14:13:26;12.70;97.00
10030;DHT22;5055;52.054;8.524;2023-02-07T14:15:59;12.70;97.00
10030;DHT22;5055;52.054;8.524;2023-02-07T14:18:38;12.60;97.00
10030;DHT22;5055;52.054;8.524;2023-02-07T14:21:28;12.90;97.00
10030;DHT22;5055;52.054;8.524;2023-02-07T14:27:00;13.30;97.00
10030;DHT22;5055;52.054;8.524;2023-02-07T14:30:15;13.20;97.00
10030;DHT22;5055;52.054;8.524;2023-02-07T14:33:08;13.20;97.00
10030;DHT22;5055;52.054;8.524;2023-02-07T14:35:43;13.10;97.00
10030;DHT22;5055;52.054;8.524;2023-02-07T14:38:28;13.10;97.00
10030;DHT22;5055;52.054;8.524;2023-02-07T14:41:02;12.80;97.00
10030;DHT22;5055;52.054;8.524;2023-02-07T14:43:57;13.00;97.00
10030;DHT22;5055;52.054;8.524;2023-02-07T14:46:37;12.70;97.00
10030;DHT22;5055;52.054;8.524;2023-02-07T14:49:13;12.20;97.00
10030;DHT22;5055;52.054;8.524;2023-02-07T14:51:44;12.30;97.00
10030;DHT22;5055;52.054;8.524;2023-02-07T14:54:16;12.40;97.00
10030;DHT22;5055;52.054;8.524;2023-02-07T14:56:50;12.30;97.00
10030;DHT22;5055;52.054;8.524;2023-02-07T14:59:27;12.40;97.00
10030;DHT22;5055;52.054;8.524;2023-02-07T15:01:56;12.70;97.00
10030;DHT22;5055;52.054;8.524;2023-02-07T15:04:24;12.90;97.00
10030;DHT22;5055;52.054;8.524;2023-02-07T15:06:52;13.10;97.00
10030;DHT22;5055;52.054;8.524;2023-02-07T15:09:24;13.00;97.00
10030;DHT22;5055;52.054;8.524;2023-02-07T15:12:00;12.60;97.00
10030;DHT22;5055;52.054;8.524;2023-02-07T15:14:46;11.40;97.00
10030;DHT22;5055;52.054;8.524;2023-02-07T15:17:19;10.60;97.00
10030;DHT22;5055;52.054;8.524;2023-02-07T15:19:49;9.80;97.00
10030;DHT22;5055;52.054;8.524;2023-02-07T15:22:24;8.90;97.00
10030;DHT22;5055;52.054;8.524;2023-02-07T15:24:55;8.20;97.00
10030;DHT22;5055;52.054;8.524;2023-02-07T15:27:26;7.70;97.00
10030;DHT22;5055;52.054;8.524;2023-02-07T15:29:58;7.00;97.00
10030;DHT22;5055;52.054;8.524;2023-02-07T15:32:29;6.50;97.00
10030;DHT22;5055;52.054;8.524;2023-02-07T15:34:57;6.10;97.00
10030;DHT22;5055;52.054;8.524;2023-02-07T15:37:34;5.80;97.00
10030;DHT22;5055;52.054;8.524;2023-02-07T15:40:02;5.60;97.00
10030;DHT22;5055;52.054;8.524;2023-02-07T15:42:31;5.40;97.00
10030;DHT22;5055;52.054;8.524;2023-02-07T15:45:00;5.20;97.00
10030;DHT22;5055;52.054;8.524;2023-02-07T15:47:35;5.10;97.00
10030;DHT22;5055;52.054;8.524;2023-02-07T15:50:05;4.90;97.00
10030;DHT22;5055;52.054;8.524;2023-02-07T15:52:36;4.80;97.00
10030;DHT22;5055;52.054;8.524;2023-02-07T15:55:15;4.60;97.00
10030;DHT22;5055;52.054;8.524;2023-02-07T15:57:44;4.50;97.00
10030;DHT22;5055;52.054;8.524;2023-02-07T16:00:16;4.40;97.00
10030;DHT22;5055;52.054;8.524;2023-02-07T16:02:54;4.30;97.00
10030;DHT22;5055;52.054;8.524;2023-02-07T16:05:25;4.20;97.00
10030;DHT22;5055;52.054;8.524;2023-02-07T16:07:55;4.10;97.00
10030;DHT22;5055;52.054;8.524;2023-02-07T16:10:35;4.10;97.00
10030;DHT22;5055;52.054;8.524;2023-02-07T16:13:13;4.00;97.00
10030;DHT22;5055;52.054;8.524;2023-02-07T16:15:57;3.90;97.00
10030;DHT22;5055;52.054;8.524;2023-02-07T16:18:34;3.80;97.00
10030;DHT22;5055;52.054;8.524;2023-02-07T16:21:04;3.70;97.00
10030;DHT22;5055;52.054;8.524;2023-02-07T16:23:34;3.60;97.00
10030;DHT22;5055;52.054;8.524;2023-02-07T16:26:02;3.50;97.00
10030;DHT22;5055;52.054;8.524;2023-02-07T16:28:31;3.50;97.00
10030;DHT22;5055;52.054;8.524;2023-02-07T16:31:01;3.40;97.00
10030;DHT22;5055;52.054;8.524;2023-02-07T16:33:29;3.30;97.00
10030;DHT22;5055;52.054;8.524;2023-02-07T16:35:58;3.20;97.00
10030;DHT22;5055;52.054;8.524;2023-02-07T16:38:26;3.10;97.00
10030;DHT22;5055;52.054;8.524;2023-02-07T16:40:54;3.00;97.00